Time;durP1;ratioP1;P1;durP2;ratioP2;P2;SDS_P1;SDS_P2;PMS_P1;PMS_P2;Temp;Humidity;BMP_temperature;BMP_pressure;BME280_temperature;BME280_humidity;BME280_pressure;Samples;Min_cycle;Max_cycle;Signal;HPM_P1;HPM_P2
2023/05/05 00:02:24;;;;;;;6.93;2.53;;;11.60;99.90;;;;;;5064018;28;20502;-83
2023/05/05 00:04:51;;;;;;;7.20;2.30;;;11.60;99.90;;;;;;5048894;28;20139;-82
2023/05/05 00:07:17;;;;;;;7.95;2.70;;;11.60;99.90;;;;;;5066403;28;20032;-80
2023/05/05 00:09:43;;;;;;;8.75;2.67;;;11.60;99.90;;;;;;5066686;28;20041;-81
2023/05/05 00:12:12;;;;;;;7.72;2.60;;;11.20;99.90;;;;;;5082298;28;20028;-81
2023/05/05 00:14:37;;;;;;;10.40;3.25;;;13.00;99.90;;;;;;5065038;28;20036;-80
2023/05/05 00:17:04;;;;;;;9.75;2.88;;;11.60;99.90;;;;;;5052505;28;20068;-80
2023/05/05 00:19:31;;;;;;;8.07;3.20;;;12.90;99.90;;;;;;5039629;28;20120;-84
2023/05/05 00:21:56;;;;;;;5.55;3.15;;;11.60;99.90;;;;;;5056682;28;20055;-82
2023/05/05 00:24:22;;;;;;;11.80;2.90;;;11.60;99.90;;;;;;5039948;28;20044;-81
2023/05/05 00:26:48;;;;;;;4.35;2.58;;;10.10;99.90;;;;;;5070468;28;20045;-81
2023/05/05 00:29:13;;;;;;;2.67;2.42;;;12.80;99.90;;;;;;5044060;28;20056;-80
2023/05/05 00:31:39;;;;;;;5.50;3.03;;;11.60;99.90;;;;;;5066746;28;20917;-81
2023/05/05 00:34:05;;;;;;;8.90;2.67;;;13.50;99.90;;;;;;5059605;28;20052;-81
2023/05/05 00:36:30;;;;;;;4.88;2.53;;;11.80;99.90;;;;;;5050950;28;20033;-81
2023/05/05 00:38:56;;;;;;;7.75;3.13;;;11.50;99.90;;;;;;5069037;28;20114;-81
2023/05/05 00:41:22;;;;;;;5.50;2.25;;;13.30;99.90;;;;;;5042436;28;20040;-81
2023/05/05 00:43:47;;;;;;;5.97;2.75;;;9.60;99.90;;;;;;5054621;28;20045;-80
2023/05/05 00:46:25;;;;;;;3.95;2.78;;;13.10;99.90;;;;;;5044246;28;20052;-80
2023/05/05 00:48:51;;;;;;;7.00;3.00;;;11.50;99.90;;;;;;5057166;28;20090;-80
2023/05/05 00:51:18;;;;;;;7.75;2.90;;;12.60;99.90;;;;;;5048261;28;20456;-80
2023/05/05 00:53:45;;;;;;;5.43;3.15;;;13.50;99.90;;;;;;5060026;28;20154;-80
2023/05/05 00:56:15;;;;;;;4.30;2.88;;;11.40;99.90;;;;;;5059762;28;20065;-80
2023/05/05 00:58:42;;;;;;;4.63;2.60;;;11.40;99.90;;;;;;5065402;28;20127;-82
2023/05/05 01:01:11;;;;;;;4.43;3.05;;;11.40;99.90;;;;;;5059859;28;20037;-80
2023/05/05 01:03:38;;;;;;;5.13;2.75;;;11.40;99.90;;;;;;5038539;28;20396;-81
2023/05/05 01:06:14;;;;;;;6.15;2.88;;;11.30;99.90;;;;;;5067530;28;20041;-80
2023/05/05 01:09:20;;;;;;;7.88;3.00;;;11.30;99.90;;;;;;5044748;28;20052;-80
2023/05/05 01:11:51;;;;;;;4.90;2.30;;;11.20;99.90;;;;;;5094239;28;20033;-80
2023/05/05 01:14:23;;;;;;;4.82;2.90;;;11.20;99.90;;;;;;5045251;28;20591;-80
2023/05/05 01:16:59;;;;;;;6.38;2.53;;;11.40;99.90;;;;;;5046265;28;20056;-81
2023/05/05 01:19:30;;;;;;;7.85;2.90;;;11.20;99.90;;;;;;5047071;28;20053;-81
2023/05/05 01:22:02;;;;;;;12.23;2.92;;;11.20;99.90;;;;;;5048319;28;20052;-80
2023/05/05 01:24:44;;;;;;;6.35;3.40;;;11.10;99.90;;;;;;5048734;28;20548;-80
2023/05/05 01:27:21;;;;;;;5.25;2.53;;;11.20;99.90;;;;;;5046579;28;20041;-80
2023/05/05 01:30:21;;;;;;;4.55;2.85;;;11.10;99.90;;;;;;5046230;28;20063;-80
2023/05/05 01:32:51;;;;;;;5.50;2.72;;;11.10;99.90;;;;;;5080887;28;20086;-81
2023/05/05 01:35:30;;;;;;;7.30;3.28;;;12.50;99.90;;;;;;5070775;28;20051;-80
2023/05/05 01:38:10;;;;;;;3.08;2.42;;;11.10;99.90;;;;;;5052349;28;20102;-83
2023/05/05 01:40:58;;;;;;;10.07;3.45;;;10.80;99.90;;;;;;5058854;28;20037;-82
2023/05/05 01:43:28;;;;;;;5.20;2.78;;;11.00;99.90;;;;;;5042991;28;20040;-79
2023/05/05 01:45:55;;;;;;;7.55;2.95;;;11.00;99.90;;;;;;5064594;28;20385;-80
2023/05/05 01:48:22;;;;;;;4.85;2.90;;;11.00;99.90;;;;;;5065119;28;20045;-79
2023/05/05 01:50:51;;;;;;;5.38;2.78;;;8.90;99.90;;;;;;5063412;28;20493;-79
2023/05/05 01:53:18;;;;;;;4.57;3.22;;;12.70;99.90;;;;;;5065060;28;20051;-80
2023/05/05 01:55:45;;;;;;;6.38;2.78;;;11.40;99.90;;;;;;5065243;28;20047;-80
2023/05/05 01:58:12;;;;;;;7.50;2.65;;;13.60;99.90;;;;;;5051126;28;20041;-80
2023/05/05 02:00:39;;;;;;;5.60;2.88;;;11.40;99.90;;;;;;5071253;28;20044;-81
2023/05/05 02:03:07;;;;;;;7.55;3.22;;;10.90;99.90;;;;;;5068142;28;20162;-80
2023/05/05 02:05:34;;;;;;;6.22;3.33;;;11.90;99.90;;;;;;5053460;28;20045;-80
2023/05/05 02:08:00;;;;;;;5.22;2.92;;;10.70;99.90;;;;;;5053353;28;20048;-79
2023/05/05 02:10:29;;;;;;;7.95;3.45;;;11.30;99.90;;;;;;5066040;28;20663;-79
2023/05/05 02:12:57;;;;;;;7.28;3.22;;;11.30;99.90;;;;;;5066837;28;20100;-79
2023/05/05 02:15:25;;;;;;;6.32;3.63;;;10.80;99.90;;;;;;5053113;28;20044;-80
2023/05/05 02:17:53;;;;;;;7.88;3.13;;;10.80;99.90;;;;;;5047289;28;20051;-79
2023/05/05 02:20:19;;;;;;;5.25;2.72;;;10.80;99.90;;;;;;5069288;28;20106;-79
2023/05/05 02:22:45;;;;;;;6.75;3.20;;;10.80;99.90;;;;;;5069506;28;20040;-79
2023/05/05 02:25:11;;;;;;;8.98;3.45;;;12.20;99.90;;;;;;5053060;28;20051;-80
2023/05/05 02:27:43;;;;;;;9.60;3.58;;;12.40;99.90;;;;;;5068940;28;20037;-79
2023/05/05 02:30:11;;;;;;;6.63;3.22;;;10.80;99.90;;;;;;5070560;28;20403;-79
2023/05/05 02:32:45;;;;;;;6.00;3.25;;;10.80;99.90;;;;;;5051019;28;20029;-79
2023/05/05 02:35:22;;;;;;;6.25;2.70;;;12.80;99.90;;;;;;5052831;28;20055;-80
2023/05/05 02:37:54;;;;;;;7.50;3.35;;;10.80;99.90;;;;;;5036311;28;20049;-79
2023/05/05 02:40:25;;;;;;;8.45;3.88;;;13.10;99.90;;;;;;5068101;28;20044;-80
2023/05/05 02:42:54;;;;;;;11.13;3.45;;;12.40;99.90;;;;;;5052894;28;20055;-80
2023/05/05 02:45:22;;;;;;;7.18;3.28;;;12.00;99.90;;;;;;5068391;28;20044;-80
2023/05/05 02:47:47;;;;;;;7.43;3.45;;;12.90;99.90;;;;;;5066259;28;20103;-80
2023/05/05 02:50:14;;;;;;;7.70;3.22;;;10.80;99.90;;;;;;5068572;28;20435;-81
2023/05/05 02:52:40;;;;;;;7.15;2.83;;;10.80;99.90;;;;;;5064372;28;20087;-79
2023/05/05 02:55:07;;;;;;;5.18;2.90;;;12.60;99.90;;;;;;5080228;28;20060;-79
2023/05/05 02:57:46;;;;;;;8.02;3.10;;;10.80;99.90;;;;;;5067859;28;20059;-80
2023/05/05 03:00:53;;;;;;;7.20;3.40;;;10.80;99.90;;;;;;5049694;28;20048;-79
2023/05/05 03:03:39;;;;;;;6.00;3.40;;;10.80;99.90;;;;;;5066190;28;20744;-80
2023/05/05 03:06:18;;;;;;;6.18;3.40;;;10.80;99.90;;;;;;5064550;28;20036;-80
2023/05/05 03:09:01;;;;;;;6.45;2.40;;;10.80;99.90;;;;;;5062408;28;20127;-80
2023/05/05 03:11:42;;;;;;;4.97;2.83;;;10.60;99.90;;;;;;5083657;28;20037;-81
2023/05/05 03:14:10;;;;;;;6.25;2.70;;;10.90;99.90;;;;;;5059792;28;20048;-82
2023/05/05 03:16:38;;;;;;;5.72;3.08;;;10.70;99.90;;;;;;5065502;28;20131;-81
2023/05/05 03:19:05;;;;;;;6.78;3.50;;;13.20;99.90;;;;;;5067998;28;20056;-79
2023/05/05 03:21:32;;;;;;;6.55;3.20;;;12.10;99.90;;;;;;5066040;28;20049;-80
2023/05/05 03:23:58;;;;;;;6.97;2.92;;;10.60;99.90;;;;;;5048646;28;20058;-80
2023/05/05 03:26:27;;;;;;;3.42;2.70;;;10.70;99.90;;;;;;5063499;28;20506;-82
2023/05/05 03:28:52;;;;;;;5.88;2.67;;;10.70;99.90;;;;;;5051512;28;20048;-81
2023/05/05 03:31:18;;;;;;;6.68;3.15;;;10.70;99.90;;;;;;5063439;28;20040;-82
2023/05/05 03:33:44;;;;;;;5.22;2.58;;;10.70;99.90;;;;;;5061468;28;20056;-80
2023/05/05 03:36:09;;;;;;;7.25;3.17;;;10.80;99.90;;;;;;5069845;28;20120;-81
2023/05/05 03:38:36;;;;;;;6.88;3.33;;;11.20;99.90;;;;;;5052167;28;20211;-80
2023/05/05 03:41:03;;;;;;;4.40;3.25;;;12.20;99.90;;;;;;5043758;28;20050;-80
2023/05/05 03:43:29;;;;;;;6.13;3.40;;;10.80;99.90;;;;;;5057527;28;20056;-80
2023/05/05 03:45:57;;;;;;;5.55;3.17;;;10.80;99.90;;;;;;5057543;28;20052;-80
2023/05/05 03:48:26;;;;;;;7.97;3.60;;;10.80;99.90;;;;;;5043237;28;20118;-80
2023/05/05 03:50:54;;;;;;;9.43;3.42;;;11.00;99.90;;;;;;5071684;28;20072;-81
2023/05/05 03:53:20;;;;;;;8.27;3.35;;;10.80;99.90;;;;;;5059372;28;20043;-80
2023/05/05 03:55:47;;;;;;;8.23;3.97;;;10.80;99.90;;;;;;5058801;28;20462;-80
2023/05/05 03:58:15;;;;;;;7.78;3.20;;;10.80;99.90;;;;;;5055789;28;20560;-84
2023/05/05 04:00:40;;;;;;;5.97;3.95;;;10.80;99.90;;;;;;5045224;28;20041;-79
2023/05/05 04:03:06;;;;;;;9.00;4.13;;;12.20;99.90;;;;;;5041051;28;20492;-80
2023/05/05 04:05:32;;;;;;;6.50;3.60;;;10.80;99.90;;;;;;5061052;28;20124;-80
2023/05/05 04:08:00;;;;;;;6.10;3.13;;;10.80;99.90;;;;;;5068985;28;20094;-79
2023/05/05 04:10:26;;;;;;;9.07;4.03;;;10.70;99.90;;;;;;5057150;28;20041;-80
2023/05/05 04:12:51;;;;;;;9.15;3.80;;;10.70;99.90;;;;;;5054949;28;20029;-81
2023/05/05 04:15:17;;;;;;;8.15;4.38;;;13.60;99.90;;;;;;5056550;28;20056;-78
2023/05/05 04:17:44;;;;;;;7.95;3.58;;;10.70;99.90;;;;;;5050341;28;20132;-79
2023/05/05 04:20:10;;;;;;;7.80;4.93;;;9.20;99.90;;;;;;5043789;28;20048;-78
2023/05/05 04:22:36;;;;;;;11.13;4.75;;;10.60;99.90;;;;;;5033102;28;20397;-79
2023/05/05 04:25:01;;;;;;;9.45;4.25;;;10.60;99.90;;;;;;5040954;28;20047;-80
2023/05/05 04:27:28;;;;;;;13.27;4.50;;;10.60;99.90;;;;;;5053181;28;20045;-80
2023/05/05 04:29:55;;;;;;;7.78;4.28;;;10.60;99.90;;;;;;5067936;28;20070;-80
2023/05/05 04:32:21;;;;;;;5.32;4.03;;;12.80;99.90;;;;;;5059761;28;20041;-80
2023/05/05 04:34:48;;;;;;;6.68;4.85;;;10.60;99.90;;;;;;5024747;28;20110;-80
2023/05/05 04:37:14;;;;;;;7.75;4.53;;;10.60;99.90;;;;;;5047548;28;20079;-80
2023/05/05 04:39:43;;;;;;;12.05;4.50;;;10.60;99.90;;;;;;5059367;28;20043;-82
2023/05/05 04:42:09;;;;;;;12.25;4.50;;;10.60;99.90;;;;;;5043302;28;20128;-80
2023/05/05 04:44:42;;;;;;;11.95;4.53;;;12.40;99.90;;;;;;5058317;28;20044;-81
2023/05/05 04:47:08;;;;;;;11.85;4.32;;;10.50;99.90;;;;;;5057865;28;20414;-80
2023/05/05 04:49:35;;;;;;;6.57;3.85;;;10.70;99.90;;;;;;5048715;28;20496;-80
2023/05/05 04:52:01;;;;;;;7.93;4.70;;;10.40;99.90;;;;;;5054904;28;20032;-81
2023/05/05 04:54:26;;;;;;;9.80;4.63;;;11.80;99.90;;;;;;5039049;28;20476;-80
2023/05/05 04:56:55;;;;;;;7.05;4.10;;;10.40;99.90;;;;;;5057804;28;20044;-79
2023/05/05 04:59:21;;;;;;;7.03;4.72;;;11.80;99.90;;;;;;5040412;28;20135;-79
2023/05/05 05:01:46;;;;;;;8.32;4.40;;;10.20;99.90;;;;;;5057175;28;20106;-80
2023/05/05 05:04:17;;;;;;;6.00;4.47;;;10.40;99.90;;;;;;5056688;28;20037;-83
2023/05/05 05:06:45;;;;;;;9.80;4.53;;;11.10;99.90;;;;;;5066083;28;20411;-80
2023/05/05 05:09:11;;;;;;;7.75;4.70;;;10.10;99.90;;;;;;5055874;28;20052;-80
2023/05/05 05:11:37;;;;;;;7.28;5.00;;;8.70;99.90;;;;;;5058421;28;20472;-80
2023/05/05 05:14:03;;;;;;;7.15;4.78;;;10.10;99.90;;;;;;5041766;28;20512;-79
2023/05/05 05:16:28;;;;;;;9.15;4.88;;;10.10;99.90;;;;;;5042021;28;21060;-81
2023/05/05 05:18:54;;;;;;;9.70;5.68;;;10.20;99.90;;;;;;5039870;28;20531;-79
2023/05/05 05:21:20;;;;;;;7.55;4.50;;;12.30;99.90;;;;;;5058889;28;20688;-80
2023/05/05 05:23:46;;;;;;;8.30;5.15;;;10.00;99.90;;;;;;5057995;28;20041;-81
2023/05/05 05:26:12;;;;;;;6.03;5.22;;;8.00;99.90;;;;;;5039209;28;20041;-79
2023/05/05 05:28:38;;;;;;;9.68;4.93;;;12.00;99.90;;;;;;5059364;28;20045;-80
2023/05/05 05:31:06;;;;;;;6.63;4.47;;;9.90;99.90;;;;;;5055649;28;20065;-81
2023/05/05 05:33:31;;;;;;;9.15;4.70;;;10.00;99.90;;;;;;5028662;28;20125;-80
2023/05/05 05:35:58;;;;;;;8.32;4.88;;;9.90;99.90;;;;;;5059391;28;20131;-82
2023/05/05 05:38:27;;;;;;;5.25;4.68;;;10.10;99.90;;;;;;5045345;28;20044;-81
2023/05/05 05:40:53;;;;;;;8.18;4.22;;;10.10;99.90;;;;;;5045949;28;20032;-80
2023/05/05 05:43:20;;;;;;;6.07;5.22;;;10.20;99.90;;;;;;5059508;28;20503;-80
2023/05/05 05:45:47;;;;;;;10.05;5.03;;;10.20;99.90;;;;;;5022092;28;20659;-82
2023/05/05 05:48:13;;;;;;;8.77;4.72;;;;;;;;;;5061178;28;20252;-81
2023/05/05 05:50:39;;;;;;;8.52;5.75;;;10.30;99.90;;;;;;5042820;28;20048;-80
2023/05/05 05:53:06;;;;;;;9.35;5.53;;;10.50;99.90;;;;;;5068299;28;20392;-83
2023/05/05 05:55:32;;;;;;;7.13;5.05;;;11.80;99.90;;;;;;5047899;28;20520;-81
2023/05/05 05:57:58;;;;;;;10.55;5.55;;;13.00;99.90;;;;;;5066536;28;20068;-81
2023/05/05 06:00:23;;;;;;;9.82;5.30;;;10.30;99.90;;;;;;5060854;28;20459;-80
2023/05/05 06:02:50;;;;;;;10.52;5.75;;;10.30;99.90;;;;;;5043586;28;20044;-81
2023/05/05 06:05:16;;;;;;;8.73;5.97;;;10.20;99.90;;;;;;5062478;28;20049;-82
2023/05/05 06:07:41;;;;;;;9.80;4.82;;;10.30;99.90;;;;;;5069521;28;20048;-82
2023/05/05 06:10:08;;;;;;;8.90;6.25;;;11.40;99.90;;;;;;5050825;28;20113;-81
2023/05/05 06:12:34;;;;;;;12.82;5.63;;;10.30;99.90;;;;;;5062212;28;20040;-81
2023/05/05 06:15:01;;;;;;;9.43;5.50;;;10.30;99.90;;;;;;5059816;28;20410;-80
2023/05/05 06:17:27;;;;;;;7.93;5.47;;;10.30;99.90;;;;;;5027342;28;20049;-80
2023/05/05 06:19:53;;;;;;;8.05;5.65;;;10.40;99.90;;;;;;5028045;28;20072;-81
2023/05/05 06:22:18;;;;;;;9.63;6.38;;;10.50;99.90;;;;;;5043324;28;20033;-83
2023/05/05 06:24:44;;;;;;;10.13;5.80;;;10.50;99.90;;;;;;5064370;28;20058;-81
2023/05/05 06:27:10;;;;;;;11.48;6.70;;;10.50;99.90;;;;;;5051812;28;20131;-80
2023/05/05 06:29:36;;;;;;;11.38;6.03;;;10.40;99.90;;;;;;5069120;28;20431;-82
2023/05/05 06:32:01;;;;;;;8.85;5.93;;;10.60;99.90;;;;;;5050448;28;20442;-85
2023/05/05 06:34:27;;;;;;;8.10;5.72;;;12.00;99.90;;;;;;5064860;28;20041;-78
2023/05/05 06:36:52;;;;;;;9.80;6.00;;;12.70;99.90;;;;;;5068791;28;20037;-75
2023/05/05 06:39:18;;;;;;;8.05;5.57;;;12.70;99.90;;;;;;5065869;28;20051;-78
2023/05/05 06:41:44;;;;;;;14.90;5.63;;;10.70;99.90;;;;;;5065070;28;20044;-79
2023/05/05 06:44:10;;;;;;;7.30;6.40;;;10.70;99.90;;;;;;5050116;28;20052;-79
2023/05/05 06:46:35;;;;;;;11.55;6.45;;;13.00;99.90;;;;;;5068519;28;20511;-79
2023/05/05 06:49:01;;;;;;;9.27;5.90;;;12.10;99.90;;;;;;5050876;28;20036;-79
2023/05/05 06:51:27;;;;;;;10.60;5.68;;;12.90;99.90;;;;;;5068121;28;20131;-79
2023/05/05 06:53:52;;;;;;;11.30;6.03;;;12.00;99.90;;;;;;5052464;28;20503;-80
2023/05/05 06:56:18;;;;;;;7.93;6.07;;;10.90;99.90;;;;;;5069919;28;20048;-79
2023/05/05 06:58:44;;;;;;;8.68;6.40;;;12.50;99.90;;;;;;5053324;28;20097;-78
2023/05/05 07:01:09;;;;;;;9.07;6.20;;;11.50;99.90;;;;;;5044104;28;20498;-78
2023/05/05 07:03:35;;;;;;;11.65;6.25;;;13.20;99.90;;;;;;5072305;28;20032;-80
2023/05/05 07:06:01;;;;;;;8.75;6.95;;;11.70;99.90;;;;;;5058345;28;20045;-79
2023/05/05 07:08:26;;;;;;;11.63;6.47;;;11.20;99.90;;;;;;5051637;28;20108;-80
2023/05/05 07:10:52;;;;;;;8.48;6.57;;;11.40;99.90;;;;;;5055988;28;20104;-79
2023/05/05 07:13:18;;;;;;;14.00;7.13;;;11.10;99.90;;;;;;5069259;28;20067;-79
2023/05/05 07:15:45;;;;;;;12.25;7.13;;;13.10;99.90;;;;;;5070702;28;20067;-79
2023/05/05 07:18:15;;;;;;;8.57;6.40;;;13.50;99.90;;;;;;5076447;28;20048;-79
2023/05/05 07:20:42;;;;;;;13.63;6.85;;;12.60;99.90;;;;;;5070387;28;20090;-80
2023/05/05 07:23:10;;;;;;;8.95;6.25;;;11.30;99.90;;;;;;5054732;28;20036;-79
2023/05/05 07:25:36;;;;;;;10.15;6.93;;;11.60;99.90;;;;;;5071761;28;20479;-81
2023/05/05 07:28:02;;;;;;;16.10;7.18;;;11.40;99.90;;;;;;5070250;28;20036;-80
2023/05/05 07:30:28;;;;;;;11.45;6.95;;;11.50;99.90;;;;;;5070312;28;20202;-80
2023/05/05 07:32:54;;;;;;;18.75;7.40;;;12.70;99.90;;;;;;5069252;28;20127;-80
2023/05/05 07:35:19;;;;;;;8.75;6.80;;;12.30;99.90;;;;;;5066930;28;20040;-80
2023/05/05 07:37:46;;;;;;;14.88;7.45;;;13.70;99.90;;;;;;5053435;28;20041;-81
2023/05/05 07:40:12;;;;;;;13.43;7.75;;;11.80;99.90;;;;;;5073626;28;20046;-80
2023/05/05 07:42:38;;;;;;;9.10;6.75;;;11.80;99.90;;;;;;5072752;28;20032;-80
2023/05/05 07:45:05;;;;;;;15.60;8.00;;;11.90;99.90;;;;;;5069885;28;20053;-80
2023/05/05 07:47:31;;;;;;;11.43;8.25;;;12.00;99.90;;;;;;5045198;28;20049;-79
2023/05/05 07:49:57;;;;;;;7.90;7.10;;;12.70;99.90;;;;;;5061292;28;20097;-79
2023/05/05 07:52:23;;;;;;;15.88;8.60;;;14.20;99.90;;;;;;5085714;28;20037;-79
2023/05/05 07:54:48;;;;;;;15.25;8.65;;;12.30;99.90;;;;;;5050710;28;20120;-78
2023/05/05 07:57:15;;;;;;;10.75;8.20;;;13.40;99.90;;;;;;5051469;28;20548;-79
2023/05/05 07:59:43;;;;;;;10.85;7.90;;;13.40;99.90;;;;;;5047656;28;20048;-79
2023/05/05 08:02:11;;;;;;;10.50;8.40;;;14.30;99.90;;;;;;5069263;28;20080;-80
2023/05/05 08:04:41;;;;;;;14.85;7.90;;;13.10;99.90;;;;;;5071610;28;20469;-84
2023/05/05 08:07:08;;;;;;;8.93;7.38;;;12.70;99.90;;;;;;5078263;28;20083;-83
2023/05/05 08:09:35;;;;;;;14.00;9.20;;;12.40;99.90;;;;;;5064987;28;20139;-83
2023/05/05 08:12:03;;;;;;;10.32;7.60;;;13.60;99.90;;;;;;5068321;28;20071;-83
2023/05/05 08:14:29;;;;;;;13.55;8.35;;;14.50;99.90;;;;;;5066437;28;20055;-83
2023/05/05 08:16:55;;;;;;;9.68;8.73;;;13.70;99.90;;;;;;5050410;28;20432;-80
2023/05/05 08:19:22;;;;;;;11.82;8.48;;;13.00;99.90;;;;;;5062974;28;20032;-78
2023/05/05 08:21:51;;;;;;;12.77;8.70;;;13.20;99.90;;;;;;5067457;28;20052;-78
2023/05/05 08:24:16;;;;;;;9.73;8.23;;;13.20;99.90;;;;;;5049847;28;20036;-78
2023/05/05 08:26:42;;;;;;;11.20;9.13;;;15.00;99.90;;;;;;5052831;28;20028;-79
2023/05/05 08:29:07;;;;;;;12.32;8.50;;;14.30;99.90;;;;;;5085150;28;20523;-78
2023/05/05 08:31:38;;;;;;;11.52;9.68;;;13.50;99.90;;;;;;5068920;28;20385;-77
2023/05/05 08:34:04;;;;;;;10.35;9.23;;;15.30;99.90;;;;;;5050636;28;20075;-77
2023/05/05 08:36:31;;;;;;;11.48;10.23;;;14.50;99.90;;;;;;5063116;28;20044;-87
2023/05/05 08:38:57;;;;;;;12.13;9.88;;;14.30;99.90;;;;;;5059235;28;20041;-86
2023/05/05 08:41:22;;;;;;;14.82;9.90;;;15.90;99.90;;;;;;5056499;28;20056;-87
2023/05/05 08:43:49;;;;;;;13.63;9.90;;;13.90;99.90;;;;;;5068322;28;20352;-86
2023/05/05 08:46:15;;;;;;;11.70;10.25;;;14.10;99.90;;;;;;5067688;28;20052;-84
2023/05/05 08:48:42;;;;;;;14.93;10.32;;;14.00;99.90;;;;;;5063783;28;20491;-86
2023/05/05 08:51:12;;;;;;;12.10;10.88;;;14.00;99.90;;;;;;5064253;28;20052;-79
2023/05/05 08:53:47;;;;;;;15.18;11.77;;;14.00;99.90;;;;;;5071877;28;21612;-77
2023/05/05 08:56:14;;;;;;;11.93;10.57;;;15.80;99.90;;;;;;5065707;28;20040;-81
2023/05/05 08:58:42;;;;;;;19.10;11.38;;;15.00;99.90;;;;;;5051833;28;20079;-81
2023/05/05 09:01:09;;;;;;;15.50;11.13;;;14.60;99.90;;;;;;5031686;28;20040;-82
2023/05/05 09:03:36;;;;;;;12.98;11.68;;;15.40;99.90;;;;;;5065412;28;20124;-82
2023/05/05 09:06:03;;;;;;;13.20;10.93;;;16.10;99.90;;;;;;5048541;28;20134;-82
2023/05/05 09:08:29;;;;;;;11.93;10.82;;;15.90;99.90;;;;;;5066439;28;20483;-81
2023/05/05 09:10:55;;;;;;;15.85;11.48;;;14.70;99.90;;;;;;5064536;28;20085;-81
2023/05/05 09:13:21;;;;;;;16.58;11.48;;;14.90;99.90;;;;;;5065236;28;20504;-81
2023/05/05 09:15:46;;;;;;;18.55;11.40;;;14.90;99.90;;;;;;5031725;28;20056;-82
2023/05/05 09:18:14;;;;;;;13.02;11.25;;;15.00;99.90;;;;;;5067076;28;20105;-81
2023/05/05 09:20:40;;;;;;;16.23;11.57;;;16.70;99.90;;;;;;5063506;28;20045;-82
2023/05/05 09:23:17;;;;;;;18.23;11.32;;;16.00;99.90;;;;;;5039563;28;20041;-81
2023/05/05 09:26:01;;;;;;;13.27;11.45;;;15.40;99.90;;;;;;5063320;28;20102;-82
2023/05/05 09:28:26;;;;;;;13.45;11.82;;;15.40;99.90;;;;;;5079044;28;20043;-82
2023/05/05 09:30:52;;;;;;;13.15;11.18;;;15.50;99.90;;;;;;5078812;28;20044;-82
2023/05/05 09:33:29;;;;;;;13.80;11.52;;;15.80;99.90;;;;;;5044584;28;20167;-82
2023/05/05 09:35:55;;;;;;;16.38;10.75;;;15.70;99.90;;;;;;5061988;28;20043;-82
2023/05/05 09:38:23;;;;;;;19.08;12.25;;;15.80;99.90;;;;;;5065387;28;20040;-81
2023/05/05 09:40:51;;;;;;;16.15;13.90;;;17.00;99.90;;;;;;5059925;28;20043;-81
2023/05/05 09:43:18;;;;;;;17.15;13.95;;;15.90;99.90;;;;;;5056851;28;20064;-78
2023/05/05 09:45:44;;;;;;;18.00;13.82;;;17.00;99.90;;;;;;5066319;28;20125;-80
2023/05/05 09:48:32;;;;;;;17.60;14.25;;;18.10;99.90;;;;;;5048619;28;20033;-81
2023/05/05 09:50:58;;;;;;;23.73;15.32;;;16.40;99.90;;;;;;5058361;28;20408;-81
2023/05/05 09:53:25;;;;;;;20.02;16.83;;;17.80;99.90;;;;;;5058873;28;20119;-81
2023/05/05 09:55:59;;;;;;;23.38;17.27;;;16.50;99.90;;;;;;5066448;28;20503;-80
2023/05/05 09:58:29;;;;;;;25.38;18.50;;;16.60;99.90;;;;;;5042539;28;20062;-82
2023/05/05 10:00:57;;;;;;;20.80;17.98;;;17.20;99.90;;;;;;5043060;28;20162;-81
2023/05/05 10:03:24;;;;;;;22.90;17.83;;;16.70;99.90;;;;;;5058529;28;20028;-81
2023/05/05 10:05:58;;;;;;;24.58;18.48;;;16.80;99.90;;;;;;5047876;28;20102;-82
2023/05/05 10:08:26;;;;;;;23.15;19.23;;;16.90;99.90;;;;;;5059402;28;20041;-81
2023/05/05 10:10:53;;;;;;;25.75;19.65;;;16.90;99.90;;;;;;5058759;28;20446;-82
2023/05/05 10:13:20;;;;;;;22.17;18.73;;;17.40;99.90;;;;;;5041217;28;20068;-81
2023/05/05 10:15:49;;;;;;;24.45;17.50;;;16.90;99.90;;;;;;5048836;28;20063;-81
2023/05/05 10:18:22;;;;;;;22.98;18.25;;;17.00;99.90;;;;;;5069129;28;20450;-81
2023/05/05 10:20:55;;;;;;;25.02;20.15;;;17.10;99.90;;;;;;5046302;28;20048;-81
2023/05/05 10:23:23;;;;;;;22.27;18.52;;;17.30;99.90;;;;;;5046733;28;20037;-82
2023/05/05 10:26:02;;;;;;;25.42;19.73;;;18.80;99.90;;;;;;5044936;28;20098;-82
2023/05/05 10:28:36;;;;;;;22.25;19.17;;;17.30;99.90;;;;;;5045455;28;20103;-82
2023/05/05 10:31:05;;;;;;;28.08;19.08;;;17.40;99.90;;;;;;5071068;28;20043;-81
2023/05/05 10:33:47;;;;;;;27.00;20.67;;;17.40;99.90;;;;;;5062349;28;20040;-82
2023/05/05 10:36:14;;;;;;;26.80;19.48;;;17.50;99.90;;;;;;5021197;28;20062;-82
2023/05/05 10:38:41;;;;;;;25.50;19.63;;;16.50;99.90;;;;;;5071239;28;20091;-82
2023/05/05 10:41:10;;;;;;;25.58;20.23;;;17.50;99.90;;;;;;5070902;28;20519;-80
2023/05/05 10:43:36;;;;;;;22.23;18.35;;;17.50;99.90;;;;;;5067788;28;20076;-74
2023/05/05 10:46:02;;;;;;;23.38;17.20;;;17.60;99.90;;;;;;5069444;28;20036;-77
2023/05/05 10:48:43;;;;;;;18.73;16.73;;;17.60;99.90;;;;;;5071077;28;20055;-84
2023/05/05 10:51:26;;;;;;;20.92;16.27;;;17.60;99.90;;;;;;5053091;28;20119;-81
2023/05/05 10:54:04;;;;;;;17.90;14.30;;;17.60;99.90;;;;;;5071018;28;20079;-82
2023/05/05 10:56:33;;;;;;;15.05;12.80;;;17.70;99.90;;;;;;5070403;28;20048;-81
2023/05/05 10:58:59;;;;;;;15.07;12.27;;;17.80;99.90;;;;;;5066800;28;20036;-82
2023/05/05 11:01:32;;;;;;;15.70;12.05;;;17.90;99.90;;;;;;5047196;28;20039;-80
2023/05/05 11:04:21;;;;;;;15.00;11.50;;;18.00;99.90;;;;;;5067701;28;20503;-80
2023/05/05 11:07:08;;;;;;;13.73;11.98;;;18.20;99.90;;;;;;5047908;28;20045;-79
2023/05/05 11:09:37;;;;;;;15.75;12.07;;;18.20;99.90;;;;;;5043492;28;20048;-80
2023/05/05 11:12:05;;;;;;;13.95;12.55;;;18.30;99.90;;;;;;5043603;28;20116;-78
2023/05/05 11:14:30;;;;;;;14.93;12.15;;;18.30;99.90;;;;;;5045152;28;20079;-78
2023/05/05 11:16:56;;;;;;;13.55;11.02;;;18.30;99.90;;;;;;5046463;28;20083;-78
2023/05/05 11:19:46;;;;;;;12.38;10.27;;;18.20;99.90;;;;;;5048780;28;20116;-79
2023/05/05 11:22:12;;;;;;;11.45;10.07;;;18.20;99.90;;;;;;5051935;28;20052;-80
2023/05/05 11:24:39;;;;;;;10.48;9.40;;;18.20;99.90;;;;;;5062108;28;20052;-80
2023/05/05 11:27:05;;;;;;;15.45;12.05;;;18.20;99.90;;;;;;5064342;28;20049;-80
2023/05/05 11:30:02;;;;;;;15.05;10.65;;;18.30;99.90;;;;;;5068183;28;20043;-79
2023/05/05 11:32:28;;;;;;;12.43;11.13;;;18.40;99.90;;;;;;5067370;28;20040;-79
2023/05/05 11:34:53;;;;;;;9.27;7.20;;;18.50;99.90;;;;;;5042601;28;20388;-80
2023/05/05 11:37:23;;;;;;;8.05;6.22;;;18.60;99.90;;;;;;5051100;28;20292;-79
2023/05/05 11:40:09;;;;;;;10.80;9.15;;;19.30;99.90;;;;;;5068140;28;20032;-79
2023/05/05 11:42:35;;;;;;;13.85;10.18;;;18.60;99.90;;;;;;5050840;28;20090;-80
2023/05/05 11:45:19;;;;;;;13.38;9.75;;;18.50;99.90;;;;;;5051833;28;20067;-79
2023/05/05 11:47:44;;;;;;;12.70;9.85;;;18.60;99.90;;;;;;5051123;28;20040;-80
2023/05/05 11:50:18;;;;;;;10.45;8.27;;;18.50;99.90;;;;;;5069795;28;20040;-79
2023/05/05 11:52:44;;;;;;;11.75;7.88;;;18.60;99.90;;;;;;5051645;28;20049;-79
2023/05/05 11:55:10;;;;;;;9.02;8.13;;;18.60;99.90;;;;;;5068397;28;20044;-80
2023/05/05 11:57:36;;;;;;;9.88;7.55;;;18.70;99.90;;;;;;5066185;28;20392;-80
2023/05/05 12:00:04;;;;;;;12.25;8.25;;;18.60;99.90;;;;;;5049656;28;20059;-80
2023/05/05 12:02:30;;;;;;;14.40;8.07;;;18.60;99.90;;;;;;5069563;28;20111;-80
2023/05/05 12:04:57;;;;;;;10.98;7.80;;;18.60;99.90;;;;;;5058193;28;20480;-80
2023/05/05 12:07:26;;;;;;;10.15;7.63;;;18.60;99.90;;;;;;5063399;28;20040;-80
2023/05/05 12:09:52;;;;;;;7.55;6.07;;;18.60;99.90;;;;;;5066999;28;20352;-80
2023/05/05 12:12:19;;;;;;;9.50;5.70;;;18.60;99.90;;;;;;5041670;28;20047;-87
2023/05/05 12:14:51;;;;;;;6.82;4.25;;;18.70;99.90;;;;;;5063739;28;20496;-82
2023/05/05 12:17:20;;;;;;;8.13;5.72;;;18.70;99.90;;;;;;5046941;28;20058;-80
2023/05/05 12:19:53;;;;;;;9.77;6.82;;;18.70;99.90;;;;;;5080858;28;20040;-80
2023/05/05 12:22:26;;;;;;;9.17;7.40;;;18.80;99.90;;;;;;5067515;28;20079;-78
2023/05/05 12:25:01;;;;;;;10.07;7.03;;;18.80;99.90;;;;;;5065648;28;20066;-82
2023/05/05 12:27:27;;;;;;;8.35;7.38;;;18.60;99.90;;;;;;5066239;28;20360;-81
2023/05/05 12:29:54;;;;;;;8.15;7.05;;;18.60;99.90;;;;;;5050948;28;20048;-86
2023/05/05 12:32:22;;;;;;;10.95;5.97;;;18.60;99.90;;;;;;5060608;28;20068;-87
2023/05/05 12:34:56;;;;;;;14.57;7.82;;;18.50;99.90;;;;;;5045818;28;20135;-87
2023/05/05 12:37:26;;;;;;;12.98;7.68;;;18.30;99.90;;;;;;5068603;28;20047;-85
2023/05/05 12:39:54;;;;;;;13.20;7.63;;;18.40;99.90;;;;;;5059752;28;21119;-87
2023/05/05 12:42:25;;;;;;;10.35;7.45;;;18.50;99.90;;;;;;5051873;28;20051;-86
2023/05/05 12:44:54;;;;;;;8.52;6.55;;;18.30;99.90;;;;;;5067427;28;20055;-86
2023/05/05 12:47:31;;;;;;;9.52;5.93;;;17.90;99.90;;;;;;5066676;28;20123;-86
2023/05/05 12:50:02;;;;;;;8.90;5.95;;;18.20;99.90;;;;;;5060399;28;20483;-86